KNZY/NZY METAR and TAF weather

Enter ICAO airport designator
Station Type Date Time Source
KNZY METAR 2019/12/13 16:52 UTC NOAA

KNZY 131652Z 00000KT 7SM FEW005 14/12 A3015 RMK AO2 SLP210 VIS SW 2 FG BANK S-SW T01390117 $


Station Type Date Time Source
KNZY Decoded METAR 2019/12/13 16:52 UTC NOAA

NAS NORTH ISLAND, SAN DIEGO, CA, United States (KNZY) 32-42N 117-13W 14M
Dec 13, 2019 - 11:52 AM EST / 2019.12.13 1652 UTC
Wind: Calm:0
Visibility: 7 mile(s):0
Sky conditions: mostly clear
Temperature: 57.0 F (13.9 C)
Dew Point: 53.1 F (11.7 C)
Relative Humidity: 86%
Pressure (altimeter): 30.15 in. Hg (1020 hPa)
ob: KNZY 131652Z 00000KT 7SM FEW005 14/12 A3015 RMK AO2 SLP210 VIS SW 2 FG BANK S-SW T01390117
cycle: 17

Station Type Date Time Source
KNZY TAF 2019/12/13 15:57 UTC NOAA

TAF KNZY 1315/1415 VRB06KT 4800 BR BKN005 QNH3008INS
TEMPO 1315/1318 9999 FEW008 FEW250
FM131800 29009KT 9999 FEW008 FEW250 QNH3002INS
FM140400 VRB06KT 6000 BR BKN007 QNH2998INS
TEMPO 1408/1414 2400 BR BKN004 T18/1313Z T11/1422Z FS30103

Example: see airport list